sensor_id;sensor_type;location;lat;lon;timestamp;P1;durP1;ratioP1;P2;durP2;ratioP2
12980;SDS011;6555;50.468;8.480;2023-04-03T00:07:04;2.17;;;1.00;;
12980;SDS011;6555;50.468;8.480;2023-04-03T00:12:41;1.37;;;0.90;;
12980;SDS011;6555;50.468;8.480;2023-04-03T00:18:06;0.77;;;0.77;;
12980;SDS011;6555;50.468;8.480;2023-04-03T00:29:13;0.80;;;0.80;;
12980;SDS011;6555;50.468;8.480;2023-04-03T00:34:45;1.00;;;0.77;;
12980;SDS011;6555;50.468;8.480;2023-04-03T00:40:01;0.67;;;0.67;;
12980;SDS011;6555;50.468;8.480;2023-04-03T00:45:34;1.30;;;0.90;;
12980;SDS011;6555;50.468;8.480;2023-04-03T00:50:55;1.13;;;0.87;;
12980;SDS011;6555;50.468;8.480;2023-04-03T00:56:26;2.13;;;1.00;;
12980;SDS011;6555;50.468;8.480;2023-04-03T01:01:46;1.10;;;0.77;;
12980;SDS011;6555;50.468;8.480;2023-04-03T01:07:20;1.07;;;0.80;;
12980;SDS011;6555;50.468;8.480;2023-04-03T01:12:42;2.20;;;0.77;;
12980;SDS011;6555;50.468;8.480;2023-04-03T01:18:13;0.50;;;0.50;;
12980;SDS011;6555;50.468;8.480;2023-04-03T01:23:36;1.43;;;0.80;;
12980;SDS011;6555;50.468;8.480;2023-04-03T01:29:15;1.30;;;0.87;;
12980;SDS011;6555;50.468;8.480;2023-04-03T01:34:35;0.90;;;0.80;;
12980;SDS011;6555;50.468;8.480;2023-04-03T01:40:06;2.20;;;0.70;;
12980;SDS011;6555;50.468;8.480;2023-04-03T01:45:23;1.20;;;0.70;;
12980;SDS011;6555;50.468;8.480;2023-04-03T01:50:54;1.00;;;0.90;;
12980;SDS011;6555;50.468;8.480;2023-04-03T01:56:11;0.97;;;0.77;;
12980;SDS011;6555;50.468;8.480;2023-04-03T02:01:41;0.70;;;0.57;;
12980;SDS011;6555;50.468;8.480;2023-04-03T02:07:00;1.30;;;0.77;;
12980;SDS011;6555;50.468;8.480;2023-04-03T02:12:30;0.60;;;0.60;;
12980;SDS011;6555;50.468;8.480;2023-04-03T02:17:46;0.80;;;0.67;;
12980;SDS011;6555;50.468;8.480;2023-04-03T02:23:23;0.90;;;0.70;;
12980;SDS011;6555;50.468;8.480;2023-04-03T02:28:39;1.80;;;0.90;;
12980;SDS011;6555;50.468;8.480;2023-04-03T02:34:13;1.90;;;0.70;;
12980;SDS011;6555;50.468;8.480;2023-04-03T02:39:37;0.80;;;0.70;;
12980;SDS011;6555;50.468;8.480;2023-04-03T02:45:30;0.77;;;0.77;;
12980;SDS011;6555;50.468;8.480;2023-04-03T02:50:47;0.80;;;0.50;;
12980;SDS011;6555;50.468;8.480;2023-04-03T02:56:18;1.37;;;0.60;;
12980;SDS011;6555;50.468;8.480;2023-04-03T03:01:35;0.80;;;0.67;;
12980;SDS011;6555;50.468;8.480;2023-04-03T03:07:06;1.50;;;0.50;;
12980;SDS011;6555;50.468;8.480;2023-04-03T03:12:25;2.80;;;0.50;;
12980;SDS011;6555;50.468;8.480;2023-04-03T03:17:55;2.30;;;0.73;;
12980;SDS011;6555;50.468;8.480;2023-04-03T03:23:11;1.47;;;0.60;;
12980;SDS011;6555;50.468;8.480;2023-04-03T03:28:42;1.33;;;0.90;;
12980;SDS011;6555;50.468;8.480;2023-04-03T03:34:01;1.93;;;0.67;;
12980;SDS011;6555;50.468;8.480;2023-04-03T03:45:10;0.60;;;0.53;;
12980;SDS011;6555;50.468;8.480;2023-04-03T03:50:26;0.50;;;0.50;;
12980;SDS011;6555;50.468;8.480;2023-04-03T03:55:57;1.27;;;0.90;;
12980;SDS011;6555;50.468;8.480;2023-04-03T04:01:17;1.03;;;0.73;;
12980;SDS011;6555;50.468;8.480;2023-04-03T04:06:47;1.47;;;0.77;;
12980;SDS011;6555;50.468;8.480;2023-04-03T04:12:06;2.17;;;0.90;;
12980;SDS011;6555;50.468;8.480;2023-04-03T04:17:37;0.37;;;0.37;;
12980;SDS011;6555;50.468;8.480;2023-04-03T04:22:56;0.93;;;0.70;;
12980;SDS011;6555;50.468;8.480;2023-04-03T04:28:27;1.73;;;0.70;;
12980;SDS011;6555;50.468;8.480;2023-04-03T04:33:45;1.23;;;0.70;;
12980;SDS011;6555;50.468;8.480;2023-04-03T04:39:17;1.60;;;0.70;;
12980;SDS011;6555;50.468;8.480;2023-04-03T04:44:33;0.90;;;0.80;;
12980;SDS011;6555;50.468;8.480;2023-04-03T04:50:06;1.43;;;0.60;;
12980;SDS011;6555;50.468;8.480;2023-04-03T04:55:24;1.83;;;0.57;;
12980;SDS011;6555;50.468;8.480;2023-04-03T05:00:58;1.23;;;0.60;;
12980;SDS011;6555;50.468;8.480;2023-04-03T05:06:27;1.87;;;0.80;;
12980;SDS011;6555;50.468;8.480;2023-04-03T05:12:03;0.60;;;0.60;;
12980;SDS011;6555;50.468;8.480;2023-04-03T05:17:26;0.60;;;0.60;;
12980;SDS011;6555;50.468;8.480;2023-04-03T05:22:59;0.53;;;0.53;;
12980;SDS011;6555;50.468;8.480;2023-04-03T05:28:16;1.80;;;0.50;;
12980;SDS011;6555;50.468;8.480;2023-04-03T05:33:46;0.83;;;0.70;;
12980;SDS011;6555;50.468;8.480;2023-04-03T05:39:08;0.67;;;0.43;;
12980;SDS011;6555;50.468;8.480;2023-04-03T05:44:39;0.60;;;0.47;;
12980;SDS011;6555;50.468;8.480;2023-04-03T05:49:58;1.20;;;0.70;;
12980;SDS011;6555;50.468;8.480;2023-04-03T05:55:32;1.13;;;1.03;;
12980;SDS011;6555;50.468;8.480;2023-04-03T06:00:52;1.40;;;0.97;;
12980;SDS011;6555;50.468;8.480;2023-04-03T06:06:42;1.93;;;1.10;;
12980;SDS011;6555;50.468;8.480;2023-04-03T06:12:04;0.87;;;0.83;;
12980;SDS011;6555;50.468;8.480;2023-04-03T06:17:41;1.50;;;1.00;;
12980;SDS011;6555;50.468;8.480;2023-04-03T06:22:58;2.67;;;1.00;;
12980;SDS011;6555;50.468;8.480;2023-04-03T06:28:29;1.60;;;0.93;;
12980;SDS011;6555;50.468;8.480;2023-04-03T06:33:47;1.03;;;1.00;;
12980;SDS011;6555;50.468;8.480;2023-04-03T06:39:20;2.20;;;1.37;;
12980;SDS011;6555;50.468;8.480;2023-04-03T06:44:39;1.33;;;1.00;;
12980;SDS011;6555;50.468;8.480;2023-04-03T06:50:10;1.10;;;1.00;;
12980;SDS011;6555;50.468;8.480;2023-04-03T06:55:28;1.93;;;0.83;;
12980;SDS011;6555;50.468;8.480;2023-04-03T07:01:01;1.70;;;1.10;;
12980;SDS011;6555;50.468;8.480;2023-04-03T07:06:23;2.67;;;1.10;;
12980;SDS011;6555;50.468;8.480;2023-04-03T07:11:53;1.17;;;0.93;;
12980;SDS011;6555;50.468;8.480;2023-04-03T07:17:12;1.93;;;0.90;;
12980;SDS011;6555;50.468;8.480;2023-04-03T07:22:42;1.67;;;1.23;;
12980;SDS011;6555;50.468;8.480;2023-04-03T07:27:58;2.23;;;1.23;;
12980;SDS011;6555;50.468;8.480;2023-04-03T07:33:31;1.60;;;1.17;;
12980;SDS011;6555;50.468;8.480;2023-04-03T07:38:48;1.13;;;1.03;;
12980;SDS011;6555;50.468;8.480;2023-04-03T07:44:18;1.43;;;1.00;;
12980;SDS011;6555;50.468;8.480;2023-04-03T07:49:36;1.57;;;1.27;;
12980;SDS011;6555;50.468;8.480;2023-04-03T07:55:10;1.90;;;1.10;;
12980;SDS011;6555;50.468;8.480;2023-04-03T08:00:31;1.20;;;1.03;;
12980;SDS011;6555;50.468;8.480;2023-04-03T08:06:03;1.17;;;1.07;;
12980;SDS011;6555;50.468;8.480;2023-04-03T08:11:23;2.00;;;1.13;;
12980;SDS011;6555;50.468;8.480;2023-04-03T08:16:53;1.77;;;1.30;;
12980;SDS011;6555;50.468;8.480;2023-04-03T08:22:12;1.70;;;1.13;;
12980;SDS011;6555;50.468;8.480;2023-04-03T08:27:45;2.43;;;1.40;;
12980;SDS011;6555;50.468;8.480;2023-04-03T08:33:01;2.00;;;1.10;;
12980;SDS011;6555;50.468;8.480;2023-04-03T08:38:35;2.07;;;1.40;;
12980;SDS011;6555;50.468;8.480;2023-04-03T08:43:59;1.60;;;1.40;;
12980;SDS011;6555;50.468;8.480;2023-04-03T08:49:45;1.90;;;1.20;;
12980;SDS011;6555;50.468;8.480;2023-04-03T08:55:16;1.60;;;1.10;;
12980;SDS011;6555;50.468;8.480;2023-04-03T09:00:54;1.50;;;1.20;;
12980;SDS011;6555;50.468;8.480;2023-04-03T09:06:15;1.50;;;1.17;;
12980;SDS011;6555;50.468;8.480;2023-04-03T09:11:54;2.77;;;1.60;;
12980;SDS011;6555;50.468;8.480;2023-04-03T09:17:26;1.73;;;1.10;;
12980;SDS011;6555;50.468;8.480;2023-04-03T09:23:14;1.87;;;1.40;;
12980;SDS011;6555;50.468;8.480;2023-04-03T09:28:38;1.73;;;1.27;;
12980;SDS011;6555;50.468;8.480;2023-04-03T09:34:10;2.20;;;1.47;;
12980;SDS011;6555;50.468;8.480;2023-04-03T09:39:49;4.43;;;1.60;;
12980;SDS011;6555;50.468;8.480;2023-04-03T09:45:25;2.30;;;1.40;;
12980;SDS011;6555;50.468;8.480;2023-04-03T09:50:52;1.83;;;1.50;;
12980;SDS011;6555;50.468;8.480;2023-04-03T09:56:26;2.60;;;1.37;;
12980;SDS011;6555;50.468;8.480;2023-04-03T10:01:55;1.43;;;1.20;;
12980;SDS011;6555;50.468;8.480;2023-04-03T10:07:32;2.80;;;1.30;;
12980;SDS011;6555;50.468;8.480;2023-04-03T10:13:05;1.93;;;1.30;;
12980;SDS011;6555;50.468;8.480;2023-04-03T10:18:41;2.07;;;1.10;;
12980;SDS011;6555;50.468;8.480;2023-04-03T10:24:06;2.77;;;1.50;;
12980;SDS011;6555;50.468;8.480;2023-04-03T10:29:42;2.57;;;1.60;;
12980;SDS011;6555;50.468;8.480;2023-04-03T10:35:24;1.47;;;0.97;;
12980;SDS011;6555;50.468;8.480;2023-04-03T10:41:04;1.60;;;1.30;;
12980;SDS011;6555;50.468;8.480;2023-04-03T10:46:31;2.60;;;1.43;;
12980;SDS011;6555;50.468;8.480;2023-04-03T10:52:09;2.90;;;1.40;;
12980;SDS011;6555;50.468;8.480;2023-04-03T10:57:31;3.10;;;1.50;;
12980;SDS011;6555;50.468;8.480;2023-04-03T11:03:03;4.07;;;1.60;;
12980;SDS011;6555;50.468;8.480;2023-04-03T11:08:27;1.63;;;1.30;;
12980;SDS011;6555;50.468;8.480;2023-04-03T11:14:05;1.47;;;1.10;;
12980;SDS011;6555;50.468;8.480;2023-04-03T11:19:34;5.00;;;1.40;;
12980;SDS011;6555;50.468;8.480;2023-04-03T11:25:13;3.57;;;1.63;;
12980;SDS011;6555;50.468;8.480;2023-04-03T11:30:47;1.93;;;1.20;;
12980;SDS011;6555;50.468;8.480;2023-04-03T11:36:12;1.70;;;1.10;;
12980;SDS011;6555;50.468;8.480;2023-04-03T11:41:52;1.10;;;0.90;;
12980;SDS011;6555;50.468;8.480;2023-04-03T11:53:32;1.73;;;1.30;;
12980;SDS011;6555;50.468;8.480;2023-04-03T12:10:50;1.33;;;1.00;;
12980;SDS011;6555;50.468;8.480;2023-04-03T12:16:48;2.17;;;0.90;;
12980;SDS011;6555;50.468;8.480;2023-04-03T12:22:08;2.00;;;1.03;;
12980;SDS011;6555;50.468;8.480;2023-04-03T12:27:45;1.13;;;0.90;;
12980;SDS011;6555;50.468;8.480;2023-04-03T12:33:09;2.10;;;1.07;;
12980;SDS011;6555;50.468;8.480;2023-04-03T12:38:56;2.00;;;1.30;;
12980;SDS011;6555;50.468;8.480;2023-04-03T12:44:22;1.00;;;0.90;;
12980;SDS011;6555;50.468;8.480;2023-04-03T12:50:16;2.67;;;1.20;;
12980;SDS011;6555;50.468;8.480;2023-04-03T12:55:37;3.93;;;1.17;;
12980;SDS011;6555;50.468;8.480;2023-04-03T13:01:09;1.47;;;0.90;;
12980;SDS011;6555;50.468;8.480;2023-04-03T13:06:38;2.50;;;1.30;;
12980;SDS011;6555;50.468;8.480;2023-04-03T13:12:10;2.17;;;1.50;;
12980;SDS011;6555;50.468;8.480;2023-04-03T13:17:28;4.93;;;1.30;;
12980;SDS011;6555;50.468;8.480;2023-04-03T13:23:01;2.17;;;1.20;;
12980;SDS011;6555;50.468;8.480;2023-04-03T13:28:26;1.50;;;1.10;;
12980;SDS011;6555;50.468;8.480;2023-04-03T13:33:57;1.70;;;1.13;;
12980;SDS011;6555;50.468;8.480;2023-04-03T13:39:22;1.80;;;0.80;;
12980;SDS011;6555;50.468;8.480;2023-04-03T13:45:09;0.90;;;0.90;;
12980;SDS011;6555;50.468;8.480;2023-04-03T13:50:26;3.13;;;1.20;;
12980;SDS011;6555;50.468;8.480;2023-04-03T13:56:00;1.30;;;0.90;;
12980;SDS011;6555;50.468;8.480;2023-04-03T14:01:23;0.70;;;0.60;;
12980;SDS011;6555;50.468;8.480;2023-04-03T14:06:54;0.63;;;0.63;;
12980;SDS011;6555;50.468;8.480;2023-04-03T14:12:14;1.97;;;1.33;;
12980;SDS011;6555;50.468;8.480;2023-04-03T14:17:46;1.20;;;0.83;;
12980;SDS011;6555;50.468;8.480;2023-04-03T14:23:07;0.90;;;0.70;;
12980;SDS011;6555;50.468;8.480;2023-04-03T14:28:39;6.67;;;1.47;;
12980;SDS011;6555;50.468;8.480;2023-04-03T14:33:57;1.80;;;0.80;;
12980;SDS011;6555;50.468;8.480;2023-04-03T14:39:27;3.13;;;1.40;;
12980;SDS011;6555;50.468;8.480;2023-04-03T14:44:46;3.43;;;1.43;;
12980;SDS011;6555;50.468;8.480;2023-04-03T14:50:17;4.07;;;1.00;;
12980;SDS011;6555;50.468;8.480;2023-04-03T14:55:36;0.93;;;0.83;;
12980;SDS011;6555;50.468;8.480;2023-04-03T15:01:15;1.63;;;1.07;;
12980;SDS011;6555;50.468;8.480;2023-04-03T15:06:31;1.03;;;0.73;;
12980;SDS011;6555;50.468;8.480;2023-04-03T15:12:03;0.90;;;0.67;;
12980;SDS011;6555;50.468;8.480;2023-04-03T15:17:23;0.73;;;0.73;;
12980;SDS011;6555;50.468;8.480;2023-04-03T15:22:56;0.93;;;0.87;;
12980;SDS011;6555;50.468;8.480;2023-04-03T15:28:17;0.97;;;0.73;;
12980;SDS011;6555;50.468;8.480;2023-04-03T15:33:53;4.20;;;0.80;;
12980;SDS011;6555;50.468;8.480;2023-04-03T15:39:10;2.27;;;1.37;;
12980;SDS011;6555;50.468;8.480;2023-04-03T15:44:39;2.77;;;1.20;;
12980;SDS011;6555;50.468;8.480;2023-04-03T15:49:57;1.47;;;1.20;;
12980;SDS011;6555;50.468;8.480;2023-04-03T15:55:30;0.80;;;0.80;;
12980;SDS011;6555;50.468;8.480;2023-04-03T16:00:50;1.10;;;0.90;;
12980;SDS011;6555;50.468;8.480;2023-04-03T16:06:22;3.83;;;1.20;;
12980;SDS011;6555;50.468;8.480;2023-04-03T16:11:45;2.27;;;1.20;;
12980;SDS011;6555;50.468;8.480;2023-04-03T16:17:16;1.20;;;1.00;;
12980;SDS011;6555;50.468;8.480;2023-04-03T16:23:04;1.77;;;0.87;;
12980;SDS011;6555;50.468;8.480;2023-04-03T16:28:55;1.07;;;0.73;;
12980;SDS011;6555;50.468;8.480;2023-04-03T16:34:51;1.17;;;0.93;;
12980;SDS011;6555;50.468;8.480;2023-04-03T16:46:36;0.60;;;0.60;;
12980;SDS011;6555;50.468;8.480;2023-04-03T16:52:49;1.17;;;1.03;;
12980;SDS011;6555;50.468;8.480;2023-04-03T16:58:37;1.10;;;0.90;;
12980;SDS011;6555;50.468;8.480;2023-04-03T17:05:29;1.57;;;1.20;;
12980;SDS011;6555;50.468;8.480;2023-04-03T17:11:30;0.80;;;0.70;;
12980;SDS011;6555;50.468;8.480;2023-04-03T17:39:48;1.90;;;1.20;;
12980;SDS011;6555;50.468;8.480;2023-04-03T17:46:18;2.93;;;1.10;;
12980;SDS011;6555;50.468;8.480;2023-04-03T17:52:06;1.50;;;0.90;;
12980;SDS011;6555;50.468;8.480;2023-04-03T18:11:43;1.50;;;0.73;;
12980;SDS011;6555;50.468;8.480;2023-04-03T18:17:31;0.83;;;0.83;;
12980;SDS011;6555;50.468;8.480;2023-04-03T18:22:39;0.80;;;0.80;;
12980;SDS011;6555;50.468;8.480;2023-04-03T18:33:07;0.80;;;0.80;;
12980;SDS011;6555;50.468;8.480;2023-04-03T18:38:10;0.53;;;0.53;;
12980;SDS011;6555;50.468;8.480;2023-04-03T18:43:25;1.10;;;1.00;;
12980;SDS011;6555;50.468;8.480;2023-04-03T20:07:09;1.23;;;0.97;;
12980;SDS011;6555;50.468;8.480;2023-04-03T20:12:40;1.37;;;0.90;;
12980;SDS011;6555;50.468;8.480;2023-04-03T20:18:06;0.93;;;0.70;;
12980;SDS011;6555;50.468;8.480;2023-04-03T20:23:44;0.60;;;0.60;;
12980;SDS011;6555;50.468;8.480;2023-04-03T20:29:00;0.67;;;0.53;;
12980;SDS011;6555;50.468;8.480;2023-04-03T20:34:34;0.40;;;0.40;;
12980;SDS011;6555;50.468;8.480;2023-04-03T20:40:09;1.03;;;0.90;;
12980;SDS011;6555;50.468;8.480;2023-04-03T20:45:39;1.10;;;0.73;;
12980;SDS011;6555;50.468;8.480;2023-04-03T20:51:07;1.40;;;0.80;;
12980;SDS011;6555;50.468;8.480;2023-04-03T20:56:38;1.77;;;1.33;;
12980;SDS011;6555;50.468;8.480;2023-04-03T21:01:57;3.00;;;1.30;;
12980;SDS011;6555;50.468;8.480;2023-04-03T21:19:33;2.40;;;1.23;;
12980;SDS011;6555;50.468;8.480;2023-04-03T21:25:07;1.53;;;1.37;;
12980;SDS011;6555;50.468;8.480;2023-04-03T21:30:24;1.70;;;1.13;;
12980;SDS011;6555;50.468;8.480;2023-04-03T21:36:04;2.67;;;1.30;;
12980;SDS011;6555;50.468;8.480;2023-04-03T21:41:24;1.93;;;1.00;;
12980;SDS011;6555;50.468;8.480;2023-04-03T21:46:54;1.57;;;0.97;;
12980;SDS011;6555;50.468;8.480;2023-04-03T21:52:15;3.23;;;1.17;;
12980;SDS011;6555;50.468;8.480;2023-04-03T21:57:49;0.60;;;0.60;;
12980;SDS011;6555;50.468;8.480;2023-04-03T22:03:17;1.40;;;0.83;;
12980;SDS011;6555;50.468;8.480;2023-04-03T22:08:57;0.97;;;0.70;;
12980;SDS011;6555;50.468;8.480;2023-04-03T22:14:16;1.27;;;0.80;;
12980;SDS011;6555;50.468;8.480;2023-04-03T22:26:34;0.53;;;0.53;;
12980;SDS011;6555;50.468;8.480;2023-04-03T22:31:39;1.07;;;0.50;;
12980;SDS011;6555;50.468;8.480;2023-04-03T22:36:43;1.37;;;0.50;;
12980;SDS011;6555;50.468;8.480;2023-04-03T22:41:48;0.80;;;0.80;;
12980;SDS011;6555;50.468;8.480;2023-04-03T22:46:53;1.40;;;0.60;;
12980;SDS011;6555;50.468;8.480;2023-04-03T22:51:56;0.50;;;0.50;;
12980;SDS011;6555;50.468;8.480;2023-04-03T22:57:01;0.40;;;0.40;;
12980;SDS011;6555;50.468;8.480;2023-04-03T23:02:10;0.67;;;0.67;;
12980;SDS011;6555;50.468;8.480;2023-04-03T23:07:14;1.27;;;0.50;;
12980;SDS011;6555;50.468;8.480;2023-04-03T23:12:19;1.43;;;0.80;;
12980;SDS011;6555;50.468;8.480;2023-04-03T23:17:22;0.60;;;0.60;;
12980;SDS011;6555;50.468;8.480;2023-04-03T23:22:26;0.70;;;0.70;;
12980;SDS011;6555;50.468;8.480;2023-04-03T23:27:31;1.07;;;0.47;;
12980;SDS011;6555;50.468;8.480;2023-04-03T23:32:38;0.53;;;0.53;;
12980;SDS011;6555;50.468;8.480;2023-04-03T23:37:43;0.90;;;0.70;;
12980;SDS011;6555;50.468;8.480;2023-04-03T23:42:48;0.53;;;0.53;;
12980;SDS011;6555;50.468;8.480;2023-04-03T23:47:52;0.73;;;0.60;;
12980;SDS011;6555;50.468;8.480;2023-04-03T23:52:55;0.63;;;0.63;;
12980;SDS011;6555;50.468;8.480;2023-04-03T23:58:00;0.70;;;0.70;;
